Time;durP1;ratioP1;P1;durP2;ratioP2;P2;SDS_P1;SDS_P2;PMS_P1;PMS_P2;Temp;Humidity;BMP_temperature;BMP_pressure;BME280_temperature;BME280_humidity;BME280_pressure;Samples;Min_cycle;Max_cycle;Signal;HPM_P1;HPM_P2
2021/04/10 00:01:08;;;;;;;5.55;2.80;;;8.70;47.80;;;;;;6161114;23;20020;-67
2021/04/10 00:03:34;;;;;;;4.78;2.70;;;8.60;47.10;;;;;;6140265;23;20018;-67
2021/04/10 00:06:00;;;;;;;8.77;2.75;;;8.60;48.10;;;;;;6134774;23;20309;-67
2021/04/10 00:08:26;;;;;;;4.90;2.53;;;8.50;48.20;;;;;;6147160;23;20051;-67
2021/04/10 00:10:51;;;;;;;6.70;3.00;;;8.50;48.10;;;;;;6170313;23;20009;-67
2021/04/10 00:13:17;;;;;;;5.63;2.70;;;8.40;48.30;;;;;;6172634;23;20044;-67
2021/04/10 00:15:42;;;;;;;5.47;2.88;;;8.20;48.10;;;;;;6136331;23;20020;-67
2021/04/10 00:18:08;;;;;;;6.53;3.17;;;8.40;47.60;;;;;;6164962;23;20224;-67
2021/04/10 00:20:33;;;;;;;7.13;2.50;;;8.60;47.90;;;;;;6166458;23;20009;-67
2021/04/10 00:22:59;;;;;;;4.85;2.67;;;8.60;48.40;;;;;;6134500;23;20009;-67
2021/04/10 00:25:25;;;;;;;4.90;2.70;;;8.40;48.40;;;;;;6172687;23;19997;-67
2021/04/10 00:27:50;;;;;;;7.53;2.78;;;8.40;48.40;;;;;;6162386;23;20151;-67
2021/04/10 00:30:16;;;;;;;6.68;2.70;;;8.40;48.70;;;;;;6164136;23;20068;-67
2021/04/10 00:32:42;;;;;;;6.70;2.58;;;8.30;48.20;;;;;;6166587;23;20001;-67
2021/04/10 00:35:08;;;;;;;6.50;2.80;;;8.20;48.40;;;;;;6168725;23;20014;-67
2021/04/10 00:37:37;;;;;;;6.72;2.72;;;8.40;48.30;;;;;;6172007;23;20036;-67
2021/04/10 00:40:04;;;;;;;6.50;2.78;;;8.50;48.60;;;;;;6135352;23;20080;-67
2021/04/10 00:42:30;;;;;;;5.47;2.40;;;8.40;49.20;;;;;;6160814;23;20076;-67
2021/04/10 00:44:55;;;;;;;4.57;2.70;;;8.50;48.90;;;;;;6139622;23;20009;-67
2021/04/10 00:47:21;;;;;;;6.50;3.28;;;8.20;49.20;;;;;;6167804;23;20021;-67
2021/04/10 00:49:46;;;;;;;4.38;2.35;;;8.20;50.10;;;;;;6170384;23;20284;-67
2021/04/10 00:52:12;;;;;;;5.28;2.60;;;8.40;49.80;;;;;;6162537;23;20177;-67
2021/04/10 00:54:37;;;;;;;6.07;3.00;;;8.40;50.00;;;;;;6104542;23;20057;-67
2021/04/10 00:57:04;;;;;;;8.88;2.80;;;8.40;51.50;;;;;;6151792;23;20098;-67
2021/04/10 00:59:29;;;;;;;4.28;2.50;;;8.30;52.10;;;;;;6157177;23;20017;-67
2021/04/10 01:01:55;;;;;;;6.28;3.05;;;8.40;51.70;;;;;;6142700;23;20021;-67
2021/04/10 01:04:21;;;;;;;7.22;2.55;;;8.20;51.80;;;;;;6172520;23;20000;-67
2021/04/10 01:06:47;;;;;;;4.80;2.70;;;8.30;51.90;;;;;;6135301;23;20013;-67
2021/04/10 01:09:12;;;;;;;4.47;2.65;;;8.40;51.50;;;;;;6163986;23;20006;-67
2021/04/10 01:11:59;;;;;;;5.30;2.63;;;8.40;51.70;;;;;;6166465;23;20005;-67
2021/04/10 01:14:28;;;;;;;7.03;2.65;;;8.40;52.10;;;;;;6167096;23;20024;-67
2021/04/10 01:17:04;;;;;;;4.78;2.70;;;8.40;52.00;;;;;;6169472;23;20006;-67
2021/04/10 01:19:59;;;;;;;4.05;2.53;;;8.20;53.30;;;;;;6122909;23;20116;-67
2021/04/10 01:22:49;;;;;;;6.50;2.75;;;8.20;53.40;;;;;;6160117;23;20056;-67
2021/04/10 01:25:46;;;;;;;9.07;2.78;;;8.10;52.30;;;;;;6139068;23;20237;-67
2021/04/10 01:28:46;;;;;;;6.60;2.90;;;8.20;52.50;;;;;;6134677;23;20363;-67
2021/04/10 01:31:13;;;;;;;5.00;2.92;;;8.30;51.70;;;;;;6161178;23;20021;-67
2021/04/10 01:33:45;;;;;;;8.52;3.00;;;7.60;53.00;;;;;;6162290;23;20036;-67
2021/04/10 01:36:11;;;;;;;6.30;2.90;;;7.70;52.80;;;;;;6138328;23;20157;-67
2021/04/10 01:38:37;;;;;;;8.13;3.67;;;7.80;52.60;;;;;;6116019;23;20026;-67
2021/04/10 01:41:03;;;;;;;9.15;3.42;;;7.80;53.40;;;;;;6142292;23;20013;-67
2021/04/10 01:43:29;;;;;;;11.07;4.15;;;7.80;53.40;;;;;;6172274;23;20264;-67
2021/04/10 01:45:56;;;;;;;11.48;5.05;;;7.90;53.60;;;;;;6110545;23;20435;-67
2021/04/10 01:48:21;;;;;;;16.52;5.53;;;7.80;54.10;;;;;;6137474;23;20025;-67
2021/04/10 01:50:47;;;;;;;15.80;5.57;;;7.80;54.70;;;;;;6115283;23;20013;-67
2021/04/10 01:53:12;;;;;;;17.88;7.38;;;7.90;54.70;;;;;;6117774;23;20002;-67
2021/04/10 01:55:38;;;;;;;17.48;7.57;;;7.90;54.20;;;;;;6172235;23;20008;-67
2021/04/10 01:58:04;;;;;;;19.02;7.22;;;7.90;54.90;;;;;;6160394;23;20048;-67
2021/04/10 02:00:31;;;;;;;20.17;6.82;;;7.90;54.60;;;;;;6137031;23;20059;-67
2021/04/10 02:02:57;;;;;;;16.10;6.60;;;8.00;54.40;;;;;;6138433;23;20009;-67
2021/04/10 02:05:23;;;;;;;18.67;6.82;;;7.90;54.90;;;;;;6141133;23;20021;-67
2021/04/10 02:07:49;;;;;;;12.02;5.47;;;8.00;55.30;;;;;;6141353;23;20315;-67
2021/04/10 02:10:23;;;;;;;16.17;6.40;;;8.10;54.40;;;;;;6172220;23;20060;-67
2021/04/10 02:12:49;;;;;;;12.35;5.35;;;8.00;55.00;;;;;;6135614;23;20085;-67
2021/04/10 02:15:15;;;;;;;11.02;4.40;;;7.90;55.50;;;;;;6114280;23;20053;-67
2021/04/10 02:17:41;;;;;;;9.05;4.15;;;8.10;54.90;;;;;;6148350;23;20096;-67
2021/04/10 02:20:10;;;;;;;7.88;4.00;;;8.00;54.80;;;;;;6167830;23;20009;-67
2021/04/10 02:22:37;;;;;;;9.07;4.13;;;7.90;55.00;;;;;;6172036;23;20240;-67
2021/04/10 02:25:04;;;;;;;8.52;3.13;;;8.10;54.00;;;;;;6159546;23;20364;-67
2021/04/10 02:27:30;;;;;;;8.00;3.08;;;8.00;53.80;;;;;;6159637;23;20280;-67
2021/04/10 02:29:56;;;;;;;5.47;2.97;;;8.10;53.50;;;;;;6164709;23;20008;-67
2021/04/10 02:32:36;;;;;;;4.20;2.70;;;8.10;53.50;;;;;;6167320;23;20068;-67
2021/04/10 02:35:15;;;;;;;5.85;2.80;;;8.30;52.50;;;;;;6142680;23;22568;-67
2021/04/10 02:37:41;;;;;;;3.78;2.53;;;8.30;51.90;;;;;;6147571;23;20300;-67
2021/04/10 02:40:07;;;;;;;6.90;3.00;;;8.40;51.10;;;;;;6161886;23;20033;-67
2021/04/10 02:42:32;;;;;;;4.07;2.33;;;8.40;51.00;;;;;;6164137;23;20285;-67
2021/04/10 02:45:02;;;;;;;4.03;2.50;;;8.40;51.50;;;;;;6111441;23;20073;-67
2021/04/10 02:47:27;;;;;;;5.18;2.90;;;8.30;51.50;;;;;;6135262;23;20018;-67
2021/04/10 02:49:55;;;;;;;5.43;2.35;;;8.10;51.10;;;;;;6168277;23;20020;-67
2021/04/10 02:52:27;;;;;;;7.22;2.97;;;8.20;51.50;;;;;;6109017;23;20002;-67
2021/04/10 02:54:52;;;;;;;5.20;2.55;;;8.40;51.00;;;;;;6134139;23;20100;-67
2021/04/10 02:57:18;;;;;;;5.47;2.47;;;8.30;50.40;;;;;;6164163;23;20009;-68
2021/04/10 02:59:45;;;;;;;8.55;2.92;;;8.40;50.60;;;;;;6141420;23;20009;-67
2021/04/10 03:02:11;;;;;;;6.45;2.95;;;8.40;50.60;;;;;;6119357;23;20235;-67
2021/04/10 03:04:37;;;;;;;5.80;3.03;;;8.40;50.10;;;;;;6147517;23;20016;-67
2021/04/10 03:07:05;;;;;;;4.30;2.53;;;8.30;49.70;;;;;;6110938;23;20010;-67
2021/04/10 03:09:30;;;;;;;4.97;2.55;;;8.40;49.90;;;;;;6137756;23;20013;-67
2021/04/10 03:11:56;;;;;;;7.85;2.67;;;8.40;49.90;;;;;;6165969;23;20015;-67
2021/04/10 03:14:21;;;;;;;8.68;2.80;;;8.30;49.70;;;;;;6168609;23;20276;-67
2021/04/10 03:16:47;;;;;;;6.03;2.50;;;8.30;50.00;;;;;;6145000;23;20197;-67
2021/04/10 03:19:14;;;;;;;4.80;2.95;;;8.40;50.10;;;;;;6173521;23;20049;-67
2021/04/10 03:21:40;;;;;;;5.25;2.72;;;8.50;50.30;;;;;;6111188;23;20316;-67
2021/04/10 03:24:06;;;;;;;5.97;2.67;;;8.50;50.70;;;;;;6161217;23;20091;-67
2021/04/10 03:26:32;;;;;;;5.03;2.28;;;8.60;50.80;;;;;;6167842;23;20381;-67
2021/04/10 03:28:57;;;;;;;7.05;3.30;;;8.60;51.10;;;;;;6119513;23;20005;-67
2021/04/10 03:31:23;;;;;;;6.95;2.75;;;8.60;50.50;;;;;;6147462;23;20029;-67
2021/04/10 03:33:48;;;;;;;8.52;2.90;;;8.60;50.30;;;;;;6162035;23;20018;-67
2021/04/10 03:36:14;;;;;;;5.40;2.72;;;8.50;49.80;;;;;;6114705;23;20017;-67
2021/04/10 03:38:40;;;;;;;6.07;3.08;;;8.50;50.10;;;;;;6134910;23;20025;-67
2021/04/10 03:41:06;;;;;;;6.15;2.80;;;8.60;49.50;;;;;;6167724;23;20024;-67
2021/04/10 03:43:32;;;;;;;5.93;3.00;;;8.60;50.20;;;;;;6137881;23;20037;-67
2021/04/10 03:45:58;;;;;;;9.38;2.92;;;8.60;49.70;;;;;;6135835;23;20041;-67
2021/04/10 03:48:23;;;;;;;5.07;2.63;;;8.60;49.40;;;;;;6162680;23;20020;-67
2021/04/10 03:50:49;;;;;;;7.38;2.60;;;8.50;48.80;;;;;;6164458;23;20200;-67
2021/04/10 03:53:14;;;;;;;6.20;3.03;;;8.50;48.40;;;;;;6168630;23;20327;-67
2021/04/10 03:55:40;;;;;;;7.15;2.55;;;8.60;49.00;;;;;;6163762;23;20005;-67
2021/04/10 03:58:06;;;;;;;6.38;2.78;;;8.70;48.50;;;;;;6161021;23;20189;-67
2021/04/10 04:00:31;;;;;;;8.65;2.78;;;8.70;48.20;;;;;;6137566;23;20009;-68
2021/04/10 04:02:57;;;;;;;7.88;2.90;;;8.70;48.90;;;;;;6165991;23;20021;-68
2021/04/10 04:05:23;;;;;;;6.20;2.95;;;8.60;48.10;;;;;;6167663;23;20029;-67
2021/04/10 04:07:49;;;;;;;6.82;2.97;;;8.60;48.50;;;;;;6170093;23;20005;-67
2021/04/10 04:10:15;;;;;;;6.68;2.60;;;8.70;48.40;;;;;;6173120;23;20029;-68
2021/04/10 04:12:40;;;;;;;5.00;2.83;;;8.70;48.90;;;;;;6137088;23;20204;-67
2021/04/10 04:15:06;;;;;;;4.72;2.85;;;8.70;48.90;;;;;;6164906;23;20074;-67
2021/04/10 04:17:32;;;;;;;5.03;2.65;;;8.80;49.10;;;;;;6160850;23;20084;-67
2021/04/10 04:19:57;;;;;;;9.20;3.33;;;8.70;49.20;;;;;;6169478;23;20013;-67
2021/04/10 04:22:23;;;;;;;3.92;2.13;;;8.70;49.20;;;;;;6172600;23;20041;-67
2021/04/10 04:24:48;;;;;;;5.25;2.63;;;8.70;49.10;;;;;;6162161;23;20212;-67
2021/04/10 04:27:14;;;;;;;7.35;2.72;;;8.70;48.90;;;;;;6164630;23;20044;-67
2021/04/10 04:29:40;;;;;;;7.30;2.92;;;8.70;48.80;;;;;;6166892;23;20013;-67
2021/04/10 04:32:06;;;;;;;6.78;2.70;;;8.60;48.60;;;;;;6169135;23;20018;-67
2021/04/10 04:34:31;;;;;;;6.40;2.50;;;8.70;48.60;;;;;;6173115;23;20020;-67
2021/04/10 04:36:57;;;;;;;6.68;2.75;;;8.70;48.30;;;;;;6160520;23;20018;-67
2021/04/10 04:39:23;;;;;;;5.03;2.60;;;8.60;49.00;;;;;;6163708;23;20284;-67
2021/04/10 04:41:48;;;;;;;5.13;2.42;;;8.70;48.90;;;;;;6166023;23;19997;-67
2021/04/10 04:44:14;;;;;;;5.88;2.92;;;8.60;49.60;;;;;;6168610;23;20236;-67
2021/04/10 04:46:39;;;;;;;5.15;2.28;;;8.60;49.30;;;;;;6172342;23;20021;-67
2021/04/10 04:49:05;;;;;;;7.72;3.05;;;8.70;48.90;;;;;;6160371;23;20017;-67
2021/04/10 04:51:30;;;;;;;4.10;2.60;;;8.70;48.70;;;;;;6140850;23;20021;-67
2021/04/10 04:53:56;;;;;;;7.53;3.55;;;8.60;48.90;;;;;;6150805;23;20017;-67
2021/04/10 04:56:22;;;;;;;5.32;2.30;;;8.70;48.80;;;;;;6167550;23;20014;-67
2021/04/10 04:58:47;;;;;;;3.70;2.42;;;8.80;49.00;;;;;;6169551;23;20013;-67
2021/04/10 05:01:13;;;;;;;8.38;3.08;;;8.80;48.50;;;;;;6172469;23;20296;-67
2021/04/10 05:03:39;;;;;;;7.13;2.65;;;8.80;48.50;;;;;;6162519;23;20049;-67
2021/04/10 05:06:05;;;;;;;7.75;2.60;;;8.80;48.30;;;;;;6164191;23;20264;-67
2021/04/10 05:08:30;;;;;;;5.30;2.90;;;8.80;47.90;;;;;;6166872;23;20117;-67
2021/04/10 05:10:56;;;;;;;9.73;2.60;;;8.80;48.40;;;;;;6169428;23;20005;-67
2021/04/10 05:13:21;;;;;;;7.22;2.50;;;8.90;48.10;;;;;;6172445;23;20166;-67
2021/04/10 05:15:48;;;;;;;5.30;3.10;;;8.90;48.20;;;;;;6161821;23;20013;-67
2021/04/10 05:18:14;;;;;;;4.07;2.45;;;8.90;47.20;;;;;;6162266;23;20097;-67
2021/04/10 05:20:39;;;;;;;3.97;2.60;;;8.90;47.40;;;;;;6165901;23;20265;-67
2021/04/10 05:23:05;;;;;;;5.40;2.72;;;8.90;47.70;;;;;;6167910;23;20056;-67
2021/04/10 05:25:30;;;;;;;5.60;2.80;;;9.00;47.90;;;;;;6172279;23;20017;-67
2021/04/10 05:27:56;;;;;;;6.30;2.80;;;9.00;48.20;;;;;;6160881;23;20204;-68
2021/04/10 05:30:22;;;;;;;5.53;2.85;;;9.00;48.10;;;;;;6163181;23;20032;-68
2021/04/10 05:32:48;;;;;;;5.47;2.58;;;9.00;47.80;;;;;;6160771;23;20189;-67
2021/04/10 05:35:15;;;;;;;7.50;2.72;;;9.10;48.20;;;;;;6168511;23;20060;-67
2021/04/10 05:37:41;;;;;;;6.55;3.22;;;9.00;47.60;;;;;;6171866;23;20025;-67
2021/04/10 05:40:07;;;;;;;7.15;2.75;;;9.10;47.80;;;;;;6160484;23;20024;-67
2021/04/10 05:42:33;;;;;;;10.23;3.42;;;9.20;47.60;;;;;;6159675;23;20005;-67
2021/04/10 05:44:58;;;;;;;6.47;2.58;;;9.30;48.60;;;;;;6164379;23;20209;-67
2021/04/10 05:47:24;;;;;;;7.35;2.90;;;9.30;48.20;;;;;;6141286;23;20386;-67
2021/04/10 05:49:50;;;;;;;8.48;2.80;;;9.40;47.70;;;;;;6132995;23;20052;-67
2021/04/10 05:52:16;;;;;;;5.45;2.50;;;9.40;47.80;;;;;;6172662;23;20005;-67
2021/04/10 05:54:41;;;;;;;6.32;2.90;;;9.40;48.30;;;;;;6161900;23;20077;-67
2021/04/10 05:57:07;;;;;;;6.70;2.53;;;9.50;47.80;;;;;;6137924;23;20080;-67
2021/04/10 05:59:32;;;;;;;9.43;2.90;;;9.50;47.10;;;;;;6166194;23;19998;-67
2021/04/10 06:01:58;;;;;;;7.68;2.90;;;9.70;47.00;;;;;;6168946;23;20001;-67
2021/04/10 06:04:24;;;;;;;7.00;2.72;;;9.50;47.40;;;;;;6170761;23;20001;-67
2021/04/10 06:06:49;;;;;;;10.48;3.15;;;9.50;47.70;;;;;;6160961;23;20013;-67
2021/04/10 06:09:15;;;;;;;7.95;2.80;;;9.40;48.00;;;;;;6163312;23;20068;-67
2021/04/10 06:11:40;;;;;;;4.68;2.83;;;9.40;47.30;;;;;;6166554;23;20056;-68
2021/04/10 06:14:06;;;;;;;6.47;3.15;;;9.40;47.20;;;;;;6170138;23;20010;-69
2021/04/10 06:16:32;;;;;;;4.85;2.75;;;9.50;47.20;;;;;;6171805;23;20347;-68
2021/04/10 06:18:57;;;;;;;6.07;2.70;;;9.70;46.80;;;;;;6161825;23;20186;-68
2021/04/10 06:21:23;;;;;;;6.07;2.92;;;9.70;46.70;;;;;;6165022;23;20351;-69
2021/04/10 06:23:48;;;;;;;7.38;2.97;;;9.90;46.70;;;;;;6167164;23;20001;-69
2021/04/10 06:26:14;;;;;;;9.38;2.80;;;10.00;46.40;;;;;;6169333;23;20016;-68
2021/04/10 06:28:40;;;;;;;6.28;2.83;;;10.10;45.60;;;;;;6173861;23;20296;-69
2021/04/10 06:31:05;;;;;;;5.40;2.70;;;10.30;45.80;;;;;;6106922;23;20081;-69
2021/04/10 06:33:31;;;;;;;6.95;2.92;;;10.40;46.10;;;;;;6157070;23;20231;-69
2021/04/10 06:35:57;;;;;;;6.07;2.97;;;10.40;45.50;;;;;;6166061;23;20017;-68
2021/04/10 06:38:22;;;;;;;5.60;2.47;;;10.70;45.50;;;;;;6168822;23;20022;-68
2021/04/10 06:40:48;;;;;;;7.18;2.80;;;10.70;44.80;;;;;;6171362;23;20052;-68
2021/04/10 06:43:14;;;;;;;7.03;2.58;;;10.80;44.90;;;;;;6173684;23;20012;-68
2021/04/10 06:45:40;;;;;;;4.22;2.40;;;10.70;45.40;;;;;;6161862;23;20024;-68
2021/04/10 06:48:11;;;;;;;9.48;2.83;;;10.90;44.50;;;;;;6148839;23;20022;-71
2021/04/10 06:50:37;;;;;;;5.75;2.63;;;11.10;44.50;;;;;;6124410;23;20017;-67
2021/04/10 06:53:03;;;;;;;6.75;2.60;;;11.10;44.60;;;;;;6170144;23;20001;-68
2021/04/10 06:55:28;;;;;;;4.93;2.30;;;11.20;44.80;;;;;;6148106;23;20233;-67
2021/04/10 06:58:02;;;;;;;6.03;2.33;;;11.50;44.40;;;;;;6112230;23;20028;-68
2021/04/10 07:00:28;;;;;;;4.25;2.55;;;11.60;43.70;;;;;;6163217;23;20017;-69
2021/04/10 07:02:55;;;;;;;4.35;2.58;;;11.70;44.30;;;;;;6166161;23;20068;-69
2021/04/10 07:05:21;;;;;;;5.60;2.40;;;11.80;44.30;;;;;;6143384;23;20001;-71
2021/04/10 07:07:46;;;;;;;7.18;2.55;;;11.90;44.20;;;;;;6170770;23;20072;-72
2021/04/10 07:10:12;;;;;;;10.10;2.70;;;11.90;45.00;;;;;;6113567;23;20013;-71
2021/04/10 07:12:38;;;;;;;6.38;2.50;;;11.90;44.10;;;;;;6163478;23;20019;-71
2021/04/10 07:15:10;;;;;;;9.63;2.58;;;12.00;44.80;;;;;;6105691;23;20021;-70
2021/04/10 07:17:35;;;;;;;4.22;2.20;;;12.40;42.70;;;;;;6136968;23;20068;-71
2021/04/10 07:20:30;;;;;;;5.80;2.33;;;12.70;43.20;;;;;;6110179;23;20006;-72
2021/04/10 07:22:59;;;;;;;6.07;1.90;;;13.80;40.70;;;;;;6168844;23;20024;-72
2021/04/10 07:25:25;;;;;;;10.45;2.35;;;13.70;38.90;;;;;;6173654;23;20053;-73
2021/04/10 07:27:52;;;;;;;4.45;1.98;;;13.90;40.10;;;;;;6136104;23;20022;-70
2021/04/10 07:30:17;;;;;;;7.03;2.30;;;14.40;38.60;;;;;;6163616;23;20018;-75
2021/04/10 07:32:43;;;;;;;4.22;2.10;;;14.80;37.30;;;;;;6166780;23;20343;-71
2021/04/10 07:35:13;;;;;;;6.78;2.10;;;15.90;35.20;;;;;;6164877;23;20256;-71
2021/04/10 07:37:51;;;;;;;9.27;2.07;;;15.80;35.30;;;;;;6147382;23;20009;-74
2021/04/10 07:40:22;;;;;;;4.80;2.00;;;15.00;35.10;;;;;;6159448;23;20072;-76
2021/04/10 07:42:48;;;;;;;5.97;2.10;;;14.80;36.00;;;;;;6135321;23;20013;-72
2021/04/10 07:45:34;;;;;;;8.77;1.80;;;15.70;35.40;;;;;;6163038;23;20347;-73
2021/04/10 07:48:04;;;;;;;5.65;2.10;;;15.80;33.90;;;;;;6139507;23;20020;-71
2021/04/10 07:50:30;;;;;;;5.60;2.20;;;15.20;35.30;;;;;;6167763;23;20241;-72
2021/04/10 07:52:55;;;;;;;6.18;2.33;;;15.20;36.10;;;;;;6168229;23;20496;-71
2021/04/10 07:55:38;;;;;;;8.07;1.80;;;15.20;35.20;;;;;;6171680;23;20001;-70
2021/04/10 07:58:29;;;;;;;4.75;1.80;;;15.10;35.50;;;;;;6159929;23;20085;-71
2021/04/10 08:00:57;;;;;;;;;;;15.00;36.70;;;;;;6160502;23;20068;-71
2021/04/10 08:03:36;;;;;;;4.32;1.50;;;14.50;37.10;;;;;;6159640;23;19901;-72
2021/04/10 08:06:04;;;;;;;4.57;1.88;;;14.70;37.60;;;;;;6163909;23;20017;-71
2021/04/10 08:08:30;;;;;;;5.78;1.90;;;14.60;38.20;;;;;;6167499;23;20009;-72
2021/04/10 08:11:04;;;;;;;6.38;2.25;;;14.60;37.50;;;;;;6134547;23;20009;-76
2021/04/10 08:13:30;;;;;;;6.53;2.03;;;14.50;37.70;;;;;;6147024;23;20029;-71
2021/04/10 08:16:14;;;;;;;4.53;1.90;;;14.60;38.10;;;;;;6160611;23;20359;-70
2021/04/10 08:18:50;;;;;;;5.55;1.95;;;14.70;38.10;;;;;;6162934;23;20061;-71
2021/04/10 08:21:39;;;;;;;6.72;1.85;;;14.60;38.50;;;;;;6162368;23;20431;-70
2021/04/10 08:24:28;;;;;;;8.63;1.70;;;14.40;39.80;;;;;;6163883;23;20018;-71
2021/04/10 08:26:54;;;;;;;7.22;1.80;;;14.60;41.10;;;;;;6164626;23;20016;-71
2021/04/10 08:29:20;;;;;;;4.55;1.98;;;14.60;40.60;;;;;;6168164;23;20315;-71
2021/04/10 08:31:46;;;;;;;7.68;1.95;;;14.70;41.00;;;;;;6169086;23;19997;-73
2021/04/10 08:34:12;;;;;;;5.82;1.85;;;14.50;39.60;;;;;;6171120;23;20049;-71
2021/04/10 08:36:40;;;;;;;5.25;1.85;;;14.40;39.50;;;;;;6136834;23;20220;-72
2021/04/10 08:39:09;;;;;;;6.55;1.80;;;14.40;40.00;;;;;;6163254;23;20309;-71
2021/04/10 08:41:35;;;;;;;4.63;1.50;;;14.40;39.40;;;;;;6165697;23;20012;-71
2021/04/10 08:44:00;;;;;;;8.23;1.77;;;14.40;39.00;;;;;;6169252;23;20020;-72
2021/04/10 08:46:26;;;;;;;5.13;1.60;;;14.40;39.30;;;;;;6172535;23;20005;-72
2021/04/10 08:48:55;;;;;;;9.23;1.85;;;14.50;39.50;;;;;;6159545;23;20026;-71
2021/04/10 08:51:21;;;;;;;5.50;1.90;;;14.80;39.80;;;;;;6138209;23;20101;-72
2021/04/10 08:53:48;;;;;;;7.05;1.70;;;14.80;39.00;;;;;;6165748;23;20005;-75
2021/04/10 08:56:17;;;;;;;5.10;1.60;;;14.80;39.40;;;;;;6141279;23;20268;-71
2021/04/10 08:58:43;;;;;;;6.60;2.22;;;14.70;38.50;;;;;;6169585;23;20013;-73
2021/04/10 09:01:16;;;;;;;3.90;1.77;;;14.90;38.80;;;;;;6172159;23;20065;-74
2021/04/10 09:03:44;;;;;;;5.85;1.50;;;14.90;38.60;;;;;;6160708;23;20021;-75
2021/04/10 09:06:11;;;;;;;4.72;1.85;;;14.80;38.80;;;;;;6137978;23;20014;-71
2021/04/10 09:08:36;;;;;;;5.18;1.63;;;14.80;38.90;;;;;;6162015;23;20052;-71
2021/04/10 09:11:04;;;;;;;5.65;1.80;;;15.00;38.30;;;;;;6169038;23;20468;-72
2021/04/10 09:13:31;;;;;;;6.85;1.88;;;15.00;39.00;;;;;;6161721;23;20072;-70
2021/04/10 09:16:22;;;;;;;7.03;1.83;;;15.10;38.90;;;;;;6158915;23;20013;-72
2021/04/10 09:18:55;;;;;;;4.15;1.73;;;15.10;37.90;;;;;;6161415;23;20064;-73
2021/04/10 09:21:40;;;;;;;7.00;1.80;;;15.10;37.20;;;;;;6137236;23;20403;-72
2021/04/10 09:24:39;;;;;;;4.57;1.75;;;15.20;37.40;;;;;;6162647;23;20212;-72
2021/04/10 09:27:08;;;;;;;6.55;2.00;;;15.20;37.60;;;;;;6162887;23;20010;-73
2021/04/10 09:30:00;;;;;;;4.45;1.67;;;15.50;37.50;;;;;;6166307;23;20009;-72
2021/04/10 09:32:29;;;;;;;4.20;1.60;;;15.70;37.00;;;;;;6134099;23;20032;-72
2021/04/10 09:34:59;;;;;;;5.75;1.88;;;16.00;37.00;;;;;;6169167;23;20009;-72
2021/04/10 09:37:25;;;;;;;5.25;1.80;;;16.10;36.30;;;;;;6170690;23;20021;-72
2021/04/10 09:40:04;;;;;;;4.93;1.60;;;16.30;36.60;;;;;;6160519;23;20061;-72
2021/04/10 09:42:36;;;;;;;4.18;1.98;;;16.10;36.40;;;;;;6162457;23;20009;-73
2021/04/10 09:45:05;;;;;;;3.15;1.70;;;16.30;35.90;;;;;;6164018;23;20016;-73
2021/04/10 09:48:00;;;;;;;4.25;1.58;;;16.50;36.60;;;;;;6166169;23;20013;-72
2021/04/10 09:50:36;;;;;;;7.38;1.60;;;16.60;35.80;;;;;;6154160;23;20020;-72
2021/04/10 09:53:09;;;;;;;6.22;1.83;;;16.80;34.80;;;;;;6167258;23;20020;-73
2021/04/10 09:55:36;;;;;;;7.13;1.80;;;16.80;34.70;;;;;;6170646;23;20001;-72
2021/04/10 09:58:03;;;;;;;4.55;1.88;;;16.90;35.20;;;;;;6160124;23;20022;-72
2021/04/10 10:00:30;;;;;;;3.70;1.88;;;17.00;35.20;;;;;;6160915;23;20308;-72
2021/04/10 10:02:56;;;;;;;6.60;2.35;;;17.10;34.70;;;;;;6162511;23;20028;-72
2021/04/10 10:05:22;;;;;;;5.30;1.90;;;16.90;34.80;;;;;;6165370;23;20016;-72
2021/04/10 10:07:48;;;;;;;4.15;1.73;;;16.80;34.40;;;;;;6142770;23;20010;-72
2021/04/10 10:10:14;;;;;;;6.75;2.03;;;16.80;35.00;;;;;;6171686;23;20052;-72
2021/04/10 10:12:40;;;;;;;7.30;2.05;;;16.90;34.50;;;;;;6155319;23;20018;-72
2021/04/10 10:15:23;;;;;;;5.32;2.05;;;17.10;35.20;;;;;;6108807;23;20302;-72
2021/04/10 10:17:49;;;;;;;5.85;1.85;;;16.90;35.40;;;;;;6135339;23;20245;-72
2021/04/10 10:20:15;;;;;;;4.13;1.63;;;17.00;34.70;;;;;;6141404;23;20012;-72
2021/04/10 10:22:42;;;;;;;5.35;1.80;;;17.10;35.00;;;;;;6161461;23;20061;-72
2021/04/10 10:25:08;;;;;;;3.97;1.90;;;16.90;35.00;;;;;;6133715;23;20320;-71
2021/04/10 10:27:42;;;;;;;6.63;2.47;;;16.90;34.70;;;;;;6135375;23;20027;-72
2021/04/10 10:30:18;;;;;;;5.53;1.92;;;17.10;34.80;;;;;;6107860;23;20028;-73
2021/04/10 10:32:48;;;;;;;5.72;1.70;;;17.40;34.60;;;;;;6114888;23;20017;-72
2021/04/10 10:35:14;;;;;;;7.22;1.90;;;17.70;34.20;;;;;;6165759;23;20040;-72
2021/04/10 10:37:40;;;;;;;5.43;2.28;;;17.80;34.30;;;;;;6161658;23;20016;-72
2021/04/10 10:40:06;;;;;;;5.30;2.28;;;17.60;34.40;;;;;;6126784;23;20018;-73
2021/04/10 10:42:32;;;;;;;4.72;2.05;;;17.70;34.80;;;;;;6153603;23;20212;-72
2021/04/10 10:44:57;;;;;;;5.18;1.90;;;17.80;34.70;;;;;;6161804;23;20013;-72
2021/04/10 10:47:24;;;;;;;11.52;2.40;;;18.10;35.00;;;;;;6157407;23;20225;-71
2021/04/10 10:49:50;;;;;;;6.13;2.28;;;18.30;36.00;;;;;;6136006;23;20030;-72
2021/04/10 10:52:16;;;;;;;6.10;2.30;;;18.30;33.90;;;;;;6141989;23;20017;-72
2021/04/10 10:54:42;;;;;;;3.40;1.90;;;18.30;34.30;;;;;;6129654;23;20025;-73
2021/04/10 10:57:08;;;;;;;4.10;1.90;;;18.30;33.60;;;;;;6120244;23;20017;-72
2021/04/10 10:59:34;;;;;;;12.40;2.38;;;18.20;34.40;;;;;;6146478;23;20006;-72
2021/04/10 11:01:59;;;;;;;4.85;1.90;;;18.50;33.80;;;;;;6165997;23;20080;-72
2021/04/10 11:04:32;;;;;;;5.18;2.15;;;18.70;34.60;;;;;;6117750;23;20002;-72
2021/04/10 11:06:59;;;;;;;6.15;2.17;;;18.80;35.00;;;;;;6104125;23;20038;-72
2021/04/10 11:09:28;;;;;;;6.68;2.10;;;18.80;34.70;;;;;;6153805;23;20043;-71
2021/04/10 11:11:59;;;;;;;7.53;2.38;;;19.10;35.30;;;;;;6110263;23;20006;-71
2021/04/10 11:14:26;;;;;;;6.28;2.20;;;19.00;34.00;;;;;;6142014;23;20037;-75
2021/04/10 11:16:52;;;;;;;4.50;2.40;;;18.90;31.70;;;;;;6119674;23;20012;-72
2021/04/10 11:19:26;;;;;;;4.13;1.92;;;18.70;33.40;;;;;;6122374;23;20017;-70
2021/04/10 11:21:51;;;;;;;5.35;2.30;;;18.70;32.90;;;;;;6110576;23;20079;-71
2021/04/10 11:24:18;;;;;;;7.88;2.17;;;18.70;33.40;;;;;;6134329;23;20045;-70
2021/04/10 11:26:52;;;;;;;3.60;2.13;;;18.80;34.40;;;;;;6153884;23;20006;-70
2021/04/10 11:29:27;;;;;;;5.07;2.38;;;18.90;33.50;;;;;;6145856;23;20331;-70
2021/04/10 11:32:15;;;;;;;6.40;2.10;;;18.80;32.70;;;;;;6170850;23;20036;-72
2021/04/10 11:34:53;;;;;;;5.63;2.25;;;19.00;32.20;;;;;;6172996;23;19997;-72
2021/04/10 11:37:39;;;;;;;7.45;2.20;;;19.20;31.40;;;;;;6159585;23;20024;-72
2021/04/10 11:40:07;;;;;;;6.18;2.03;;;19.00;31.40;;;;;;6106529;23;20009;-72
2021/04/10 11:42:34;;;;;;;5.57;2.30;;;19.20;32.20;;;;;;6130017;23;20029;-71
2021/04/10 11:45:01;;;;;;;5.97;2.10;;;19.30;33.70;;;;;;6150674;23;20300;-72
2021/04/10 11:47:38;;;;;;;5.82;2.17;;;19.40;33.40;;;;;;6141436;23;20224;-74
2021/04/10 11:50:15;;;;;;;4.55;2.22;;;19.50;32.50;;;;;;6119864;23;20024;-74
2021/04/10 11:52:42;;;;;;;8.13;2.20;;;19.30;32.00;;;;;;6147080;23;20025;-72
2021/04/10 11:55:14;;;;;;;5.82;1.95;;;19.40;32.60;;;;;;6086801;23;20013;-73
2021/04/10 11:57:41;;;;;;;5.18;2.10;;;19.50;31.80;;;;;;6162787;23;20122;-73
2021/04/10 12:00:11;;;;;;;7.93;2.50;;;19.50;32.50;;;;;;6139050;23;20018;-73
2021/04/10 12:02:39;;;;;;;7.70;2.28;;;19.50;32.00;;;;;;6155613;23;20012;-73
2021/04/10 12:05:24;;;;;;;5.38;2.15;;;19.30;32.20;;;;;;6118452;23;20021;-72
2021/04/10 12:08:06;;;;;;;6.18;2.22;;;19.20;32.20;;;;;;6169985;23;20005;-74
2021/04/10 12:10:32;;;;;;;5.70;2.53;;;19.00;31.80;;;;;;6172515;23;20009;-71
2021/04/10 12:12:58;;;;;;;6.20;2.10;;;19.10;33.40;;;;;;6111276;23;20014;-71
2021/04/10 12:15:27;;;;;;;7.32;2.00;;;19.10;31.30;;;;;;6138252;23;20023;-72
2021/04/10 12:17:53;;;;;;;6.20;2.30;;;19.20;30.10;;;;;;6140586;23;20341;-71
2021/04/10 12:20:19;;;;;;;4.68;2.20;;;19.10;29.80;;;;;;6141634;23;20076;-71
2021/04/10 12:22:44;;;;;;;4.70;2.13;;;19.20;31.40;;;;;;6144731;23;20013;-70
2021/04/10 12:25:10;;;;;;;7.38;2.35;;;19.40;31.20;;;;;;6172878;23;20283;-70
2021/04/10 12:27:35;;;;;;;6.57;2.30;;;19.50;30.10;;;;;;6135112;23;20018;-71
2021/04/10 12:30:01;;;;;;;4.47;2.38;;;19.70;30.20;;;;;;6165342;23;20076;-68
2021/04/10 12:32:27;;;;;;;7.70;2.33;;;19.50;30.50;;;;;;6165900;23;20009;-70
2021/04/10 12:34:52;;;;;;;4.13;2.00;;;19.50;31.00;;;;;;6168794;23;20045;-70
2021/04/10 12:37:18;;;;;;;6.72;1.90;;;19.70;32.10;;;;;;6172569;23;20253;-69
2021/04/10 12:39:43;;;;;;;5.53;1.83;;;19.80;30.50;;;;;;6157699;23;20168;-69
2021/04/10 12:42:09;;;;;;;4.60;1.92;;;19.90;30.50;;;;;;6160818;23;20036;-69
2021/04/10 12:44:34;;;;;;;5.40;1.98;;;19.80;31.10;;;;;;6167133;23;20016;-69
2021/04/10 12:47:00;;;;;;;3.40;1.80;;;19.80;30.80;;;;;;6167392;23;20009;-69
2021/04/10 12:49:26;;;;;;;3.85;2.05;;;19.70;30.20;;;;;;6171219;23;20048;-69
2021/04/10 12:51:51;;;;;;;5.90;2.00;;;19.70;31.70;;;;;;6160548;23;20021;-69
2021/04/10 12:54:17;;;;;;;4.68;2.35;;;19.90;31.00;;;;;;6164019;23;20076;-70
2021/04/10 12:56:42;;;;;;;7.30;2.67;;;19.70;30.70;;;;;;6166037;23;20284;-69